createdAt,value
2023-03-08T00:02:19.269Z,90.00
2023-03-08T00:04:46.198Z,90.10
2023-03-08T00:07:13.117Z,90.00
2023-03-08T00:09:39.973Z,90.20
2023-03-08T00:12:07.597Z,90.30
2023-03-08T00:14:34.508Z,90.50
2023-03-08T00:17:02.554Z,90.40
2023-03-08T00:19:29.534Z,90.50
2023-03-08T00:21:56.575Z,90.60
2023-03-08T00:24:23.815Z,90.80
2023-03-08T00:26:50.745Z,90.70
2023-03-08T00:29:17.720Z,90.70
2023-03-08T00:31:44.704Z,90.70
2023-03-08T00:34:12.265Z,90.80
2023-03-08T00:36:41.232Z,90.80
2023-03-08T00:39:10.062Z,91.00
2023-03-08T00:41:37.974Z,91.10
2023-03-08T00:44:05.086Z,91.10
2023-03-08T00:46:32.070Z,91.20
2023-03-08T00:48:59.823Z,91.30
2023-03-08T00:51:27.105Z,91.40
2023-03-08T00:53:53.974Z,91.50
2023-03-08T00:56:21.718Z,91.40
2023-03-08T00:58:48.596Z,91.40
2023-03-08T01:01:18.976Z,91.50
2023-03-08T01:03:48.601Z,91.60
2023-03-08T01:06:16.502Z,91.90
2023-03-08T01:08:44.423Z,91.60
2023-03-08T01:11:24.108Z,91.70
2023-03-08T01:13:51.959Z,92.00
2023-03-08T01:16:28.799Z,91.90
2023-03-08T01:18:57.363Z,92.20
2023-03-08T01:21:25.589Z,92.40
2023-03-08T01:23:52.881Z,92.30
2023-03-08T01:26:24.454Z,92.40
2023-03-08T01:28:54.895Z,92.50
2023-03-08T01:31:25.013Z,92.60
2023-03-08T01:33:54.483Z,92.60
2023-03-08T01:36:24.401Z,92.60
2023-03-08T01:38:52.270Z,92.70
2023-03-08T01:41:27.720Z,92.70
2023-03-08T01:43:55.102Z,92.70
2023-03-08T01:46:31.084Z,92.70
2023-03-08T01:49:13.550Z,92.70
2023-03-08T01:51:53.799Z,92.80
2023-03-08T01:54:30.207Z,92.70
2023-03-08T01:57:07.090Z,92.90
2023-03-08T01:59:35.480Z,92.90
2023-03-08T02:02:02.857Z,92.80
2023-03-08T02:04:32.138Z,92.80
2023-03-08T02:06:59.592Z,93.00
2023-03-08T02:09:27.679Z,92.90
2023-03-08T02:11:59.134Z,93.00
2023-03-08T02:14:26.821Z,92.90
2023-03-08T02:16:54.942Z,92.80
2023-03-08T02:19:32.471Z,92.90
2023-03-08T02:21:59.463Z,93.00
2023-03-08T02:24:26.401Z,92.80
2023-03-08T02:27:04.635Z,92.80
2023-03-08T02:29:31.661Z,92.90
2023-03-08T02:31:58.636Z,92.90
2023-03-08T02:34:25.525Z,92.90
2023-03-08T02:36:52.447Z,92.80
2023-03-08T02:39:19.335Z,92.80
2023-03-08T02:41:46.649Z,92.80
2023-03-08T02:44:13.880Z,92.90
2023-03-08T02:46:40.758Z,92.80
2023-03-08T02:49:07.738Z,92.80
2023-03-08T02:51:34.703Z,92.90
2023-03-08T02:54:01.599Z,93.00
2023-03-08T02:56:28.611Z,93.10
2023-03-08T02:58:55.569Z,93.20
2023-03-08T03:01:24.045Z,93.30
2023-03-08T03:03:55.111Z,93.30
2023-03-08T03:06:22.598Z,93.40
2023-03-08T03:08:52.910Z,93.50
2023-03-08T03:11:22.591Z,93.40
2023-03-08T03:13:59.414Z,93.50
2023-03-08T03:16:31.856Z,93.60
2023-03-08T03:18:58.950Z,93.50
2023-03-08T03:21:26.039Z,93.70
2023-03-08T03:23:55.228Z,93.70
2023-03-08T03:26:27.688Z,93.80
2023-03-08T03:28:57.940Z,93.70
2023-03-08T03:31:28.403Z,93.80
2023-03-08T03:33:55.474Z,93.80
2023-03-08T03:36:25.156Z,93.80
2023-03-08T03:38:52.794Z,93.70
2023-03-08T03:41:22.970Z,93.70
2023-03-08T03:43:59.100Z,93.80
2023-03-08T03:46:26.180Z,93.90
2023-03-08T03:48:55.627Z,93.80
2023-03-08T03:51:24.092Z,93.90
2023-03-08T03:54:00.614Z,94.00
2023-03-08T03:56:28.412Z,94.20
2023-03-08T03:58:59.479Z,94.30
2023-03-08T04:01:30.908Z,94.20
2023-03-08T04:04:09.819Z,94.30
2023-03-08T04:06:39.926Z,94.50
2023-03-08T04:09:10.950Z,94.30
2023-03-08T04:11:39.733Z,94.40
2023-03-08T04:14:10.571Z,94.40
2023-03-08T04:16:39.259Z,94.40
2023-03-08T04:19:13.437Z,94.70
2023-03-08T04:21:47.232Z,94.70
2023-03-08T04:24:16.232Z,94.60
2023-03-08T04:26:45.606Z,94.50
2023-03-08T04:29:17.155Z,94.50
2023-03-08T04:31:44.431Z,94.40
2023-03-08T04:34:14.865Z,94.20
2023-03-08T04:36:42.722Z,94.50
2023-03-08T04:39:09.670Z,94.60
2023-03-08T04:41:36.575Z,94.50
2023-03-08T04:44:12.529Z,94.60
2023-03-08T04:46:44.075Z,94.60
2023-03-08T04:49:15.722Z,94.30
2023-03-08T04:51:46.976Z,94.20
2023-03-08T04:54:13.971Z,94.20
2023-03-08T04:56:46.590Z,94.30
2023-03-08T04:59:15.384Z,94.30
2023-03-08T05:01:42.794Z,94.20
2023-03-08T05:04:11.648Z,94.10
2023-03-08T05:06:40.279Z,94.20
2023-03-08T05:09:09.131Z,94.10
2023-03-08T05:11:38.116Z,94.00
2023-03-08T05:14:05.552Z,94.00
2023-03-08T05:16:33.054Z,94.00
2023-03-08T05:18:59.948Z,94.40
2023-03-08T05:21:33.972Z,94.10
2023-03-08T05:24:02.192Z,94.20
2023-03-08T05:26:32.907Z,94.30
2023-03-08T05:29:03.963Z,94.40
2023-03-08T05:31:32.761Z,94.30
2023-03-08T05:34:03.830Z,94.30
2023-03-08T05:36:35.652Z,94.30
2023-03-08T05:39:03.656Z,94.30
2023-03-08T05:41:38.010Z,94.30
2023-03-08T05:44:05.672Z,94.40
2023-03-08T05:46:35.159Z,94.30
2023-03-08T05:49:03.154Z,94.50
2023-03-08T05:51:33.419Z,94.60
2023-03-08T05:54:00.969Z,94.80
2023-03-08T05:56:28.237Z,95.10
2023-03-08T05:59:06.846Z,95.40
2023-03-08T06:01:33.828Z,95.40
2023-03-08T06:04:13.097Z,95.30
2023-03-08T06:06:42.414Z,95.30
2023-03-08T06:09:09.379Z,95.20
2023-03-08T06:11:39.528Z,95.30
2023-03-08T06:14:07.340Z,95.20
2023-03-08T06:16:35.183Z,95.20
2023-03-08T06:19:02.729Z,95.20
2023-03-08T06:21:30.942Z,95.30
2023-03-08T06:24:01.047Z,95.30
2023-03-08T06:26:28.689Z,95.30
2023-03-08T06:28:55.953Z,95.10
2023-03-08T06:31:27.325Z,95.10
2023-03-08T06:33:54.587Z,95.10
2023-03-08T06:36:25.126Z,95.10
2023-03-08T06:38:51.999Z,95.00
2023-03-08T06:41:20.371Z,95.10
2023-03-08T06:43:51.513Z,95.10
2023-03-08T06:46:19.503Z,95.00
2023-03-08T06:48:47.766Z,94.90
2023-03-08T06:51:16.202Z,94.90
2023-03-08T06:53:45.952Z,94.80
2023-03-08T06:56:21.426Z,94.80
2023-03-08T06:58:50.780Z,94.70
2023-03-08T07:01:17.963Z,94.60
2023-03-08T07:03:45.439Z,94.60
2023-03-08T07:06:12.710Z,94.60
2023-03-08T07:08:40.108Z,94.50
2023-03-08T07:11:09.698Z,94.50
2023-03-08T07:13:37.478Z,94.50
2023-03-08T07:16:09.511Z,94.50
2023-03-08T07:18:36.722Z,94.40
2023-03-08T07:21:04.047Z,94.40
2023-03-08T07:23:30.935Z,94.30
2023-03-08T07:25:57.911Z,94.10
2023-03-08T07:28:24.916Z,94.00
2023-03-08T07:30:53.116Z,93.90
2023-03-08T07:33:21.427Z,93.90
2023-03-08T07:35:49.125Z,93.80
2023-03-08T07:38:17.131Z,93.80
2023-03-08T07:40:44.444Z,93.60
2023-03-08T07:43:11.563Z,93.60
2023-03-08T07:46:04.766Z,93.60
2023-03-08T07:48:32.734Z,93.40
2023-03-08T07:51:09.514Z,93.20
2023-03-08T07:53:37.778Z,93.10
2023-03-08T07:56:05.301Z,93.10
2023-03-08T07:58:33.165Z,93.10
2023-03-08T08:01:00.052Z,93.00
2023-03-08T08:03:29.120Z,92.90
2023-03-08T08:05:56.067Z,93.10
2023-03-08T08:08:22.968Z,92.90
2023-03-08T08:10:49.858Z,92.70
2023-03-08T08:13:16.780Z,92.50
2023-03-08T08:15:43.669Z,92.40
2023-03-08T08:18:10.570Z,92.40
2023-03-08T08:20:37.900Z,92.40
2023-03-08T08:23:07.843Z,92.20
2023-03-08T08:25:34.762Z,91.80
2023-03-08T08:28:01.685Z,91.90
2023-03-08T08:30:28.576Z,91.80
2023-03-08T08:32:55.461Z,91.80
2023-03-08T08:35:25.479Z,91.80
2023-03-08T08:38:00.957Z,91.40
2023-03-08T08:40:28.448Z,91.10
2023-03-08T08:42:55.411Z,91.10
2023-03-08T08:45:22.275Z,91.00
2023-03-08T08:47:49.168Z,90.90
2023-03-08T08:50:16.304Z,90.90
2023-03-08T08:52:43.206Z,91.30
2023-03-08T08:55:10.249Z,90.80
2023-03-08T08:57:37.168Z,90.70
2023-03-08T09:00:10.720Z,90.70
2023-03-08T09:02:37.740Z,90.70
2023-03-08T09:05:04.915Z,90.60
2023-03-08T09:07:31.810Z,90.60
2023-03-08T09:10:00.521Z,90.70
2023-03-08T09:12:29.706Z,90.80
2023-03-08T09:14:56.577Z,90.80
2023-03-08T09:17:23.458Z,90.80
2023-03-08T09:19:50.449Z,91.00
2023-03-08T09:22:17.580Z,90.70
2023-03-08T09:24:47.938Z,90.50
2023-03-08T09:27:14.836Z,90.50
2023-03-08T09:29:41.713Z,90.30
2023-03-08T09:32:08.781Z,90.10
2023-03-08T09:34:35.815Z,90.00
2023-03-08T09:37:03.748Z,90.00
2023-03-08T09:39:30.608Z,89.60
2023-03-08T09:42:05.931Z,89.90
2023-03-08T09:45:07.811Z,90.00
2023-03-08T09:47:50.087Z,89.60
2023-03-08T09:50:35.757Z,90.00
2023-03-08T09:53:34.815Z,89.90
2023-03-08T09:56:29.501Z,89.50
2023-03-08T09:59:05.953Z,89.20
2023-03-08T10:02:19.881Z,89.00
2023-03-08T10:05:13.184Z,88.80
2023-03-08T10:07:52.146Z,87.70
2023-03-08T10:11:00.447Z,87.50
2023-03-08T10:13:30.332Z,87.50
2023-03-08T10:16:17.055Z,88.30
2023-03-08T10:19:01.975Z,87.30
2023-03-08T10:21:31.678Z,86.80
2023-03-08T10:24:12.317Z,86.60
2023-03-08T10:26:41.785Z,85.80
2023-03-08T10:29:14.408Z,86.00
2023-03-08T10:31:44.291Z,86.30
2023-03-08T10:34:18.392Z,86.20
2023-03-08T10:36:58.118Z,86.80
2023-03-08T10:39:25.049Z,85.70
2023-03-08T10:41:58.602Z,84.20
2023-03-08T10:44:42.779Z,84.00
2023-03-08T10:47:30.938Z,82.90
2023-03-08T10:50:15.351Z,82.70
2023-03-08T10:52:44.040Z,83.00
2023-03-08T10:55:20.461Z,82.30
2023-03-08T10:57:56.223Z,82.00
2023-03-08T11:00:36.533Z,82.00
2023-03-08T11:03:21.383Z,81.70
2023-03-08T11:06:13.719Z,81.40
2023-03-08T11:09:00.005Z,80.80
2023-03-08T11:11:27.705Z,80.70
2023-03-08T11:13:55.429Z,80.20
2023-03-08T11:16:34.361Z,79.60
2023-03-08T11:19:51.075Z,79.30
2023-03-08T11:22:47.735Z,79.60
2023-03-08T11:25:46.057Z,78.80
2023-03-08T11:28:29.372Z,79.00
2023-03-08T11:31:27.292Z,79.10
2023-03-08T11:35:07.418Z,78.60
2023-03-08T11:37:47.788Z,78.10
2023-03-08T11:40:17.723Z,78.50
2023-03-08T11:43:05.201Z,79.10
2023-03-08T11:46:02.221Z,79.00
2023-03-08T11:49:04.412Z,79.30
2023-03-08T11:51:57.832Z,79.20
2023-03-08T11:55:10.189Z,78.90
2023-03-08T11:57:45.554Z,78.50
2023-03-08T12:00:26.467Z,78.90
2023-03-08T12:02:57.430Z,79.60
2023-03-08T12:05:40.212Z,79.70
2023-03-08T12:08:29.363Z,79.30
2023-03-08T12:11:03.351Z,78.90
2023-03-08T12:13:42.108Z,79.30
2023-03-08T12:16:26.312Z,79.50
2023-03-08T12:19:43.804Z,79.50
2023-03-08T12:22:33.459Z,79.10
2023-03-08T12:25:22.532Z,79.60
2023-03-08T12:28:00.204Z,79.20
2023-03-08T12:30:53.998Z,79.60
2023-03-08T12:33:21.509Z,79.30
2023-03-08T12:35:57.793Z,80.00
2023-03-08T12:38:38.153Z,78.90
2023-03-08T12:41:21.557Z,78.60
2023-03-08T12:44:07.639Z,79.40
2023-03-08T12:47:02.372Z,79.10
2023-03-08T12:49:50.541Z,78.20
2023-03-08T12:52:20.446Z,77.20
2023-03-08T12:55:01.100Z,78.10
2023-03-08T12:57:35.010Z,77.30
2023-03-08T13:00:26.664Z,76.80
2023-03-08T13:03:02.678Z,76.80
2023-03-08T13:05:31.451Z,75.90
2023-03-08T13:08:06.918Z,76.30
2023-03-08T13:10:48.961Z,76.10
2023-03-08T13:13:57.670Z,76.10
2023-03-08T13:16:39.383Z,74.50
2023-03-08T13:19:15.410Z,74.60
2023-03-08T13:22:08.549Z,73.70
2023-03-08T13:25:00.129Z,73.70
2023-03-08T13:27:54.012Z,75.10
2023-03-08T13:30:38.720Z,75.40
2023-03-08T13:33:12.925Z,75.30
2023-03-08T13:35:40.022Z,75.50
2023-03-08T13:38:06.988Z,76.00
2023-03-08T13:40:34.027Z,75.20
2023-03-08T13:43:08.547Z,75.50
2023-03-08T13:45:35.820Z,75.50
2023-03-08T13:48:08.514Z,75.80
2023-03-08T13:50:43.986Z,75.80
2023-03-08T13:53:18.492Z,75.40
2023-03-08T13:55:49.525Z,75.40
2023-03-08T13:58:33.435Z,75.30
2023-03-08T14:01:14.858Z,75.50
2023-03-08T14:03:43.725Z,75.60
2023-03-08T14:06:23.229Z,75.50
2023-03-08T14:08:51.337Z,74.90
2023-03-08T14:11:30.472Z,74.20
2023-03-08T14:13:59.450Z,73.60
2023-03-08T14:16:36.835Z,73.70
2023-03-08T14:19:33.036Z,73.60
2023-03-08T14:22:08.888Z,73.60
2023-03-08T14:24:37.222Z,73.30
2023-03-08T14:27:38.808Z,72.70
2023-03-08T14:30:29.584Z,72.00
2023-03-08T14:33:13.998Z,72.20
2023-03-08T14:35:45.505Z,73.30
2023-03-08T14:38:25.050Z,73.60
2023-03-08T14:40:52.578Z,73.20
2023-03-08T14:43:23.720Z,74.10
2023-03-08T14:45:58.622Z,72.90
2023-03-08T14:48:30.326Z,73.40
2023-03-08T14:51:06.094Z,73.30
2023-03-08T14:53:39.857Z,72.50
2023-03-08T14:56:16.896Z,72.80
2023-03-08T14:58:49.001Z,72.50
2023-03-08T15:01:34.789Z,72.90
2023-03-08T15:04:02.805Z,74.10
2023-03-08T15:06:35.403Z,73.40
2023-03-08T15:09:06.237Z,73.40
2023-03-08T15:11:33.179Z,73.40
2023-03-08T15:14:00.690Z,73.50
2023-03-08T15:16:27.847Z,73.50
2023-03-08T15:18:54.877Z,73.40
2023-03-08T15:21:28.628Z,73.10
2023-03-08T15:23:56.561Z,72.20
2023-03-08T15:26:31.427Z,72.40
2023-03-08T15:29:03.206Z,72.70
2023-03-08T15:31:31.442Z,72.50
2023-03-08T15:33:58.436Z,73.30
2023-03-08T15:36:25.305Z,73.40
2023-03-08T15:38:52.404Z,73.40
2023-03-08T15:41:19.324Z,73.20
2023-03-08T15:43:46.418Z,73.20
2023-03-08T15:46:14.789Z,73.80
2023-03-08T15:48:42.508Z,73.10
2023-03-08T15:51:19.121Z,73.30
2023-03-08T15:53:46.768Z,73.30
2023-03-08T15:56:13.683Z,73.30
2023-03-08T15:58:40.633Z,73.10
2023-03-08T16:01:07.822Z,73.20
2023-03-08T16:03:35.082Z,72.90
2023-03-08T16:06:03.120Z,72.80
2023-03-08T16:08:30.628Z,72.80
2023-03-08T16:11:03.654Z,72.80
2023-03-08T16:13:31.197Z,72.40
2023-03-08T16:16:00.219Z,72.50
2023-03-08T16:18:29.619Z,72.60
2023-03-08T16:20:58.364Z,72.80
2023-03-08T16:23:25.603Z,73.40
2023-03-08T16:26:15.122Z,73.50
2023-03-08T16:28:44.560Z,73.90
2023-03-08T16:31:11.595Z,75.00
2023-03-08T16:33:38.687Z,74.40
2023-03-08T16:36:05.746Z,74.70
2023-03-08T16:38:32.659Z,75.40
2023-03-08T16:41:11.817Z,75.40
2023-03-08T16:43:48.320Z,75.60
2023-03-08T16:46:21.113Z,76.60
2023-03-08T16:48:49.952Z,76.10
2023-03-08T16:51:19.340Z,76.20
2023-03-08T16:53:46.354Z,76.60
2023-03-08T16:56:26.105Z,76.60
2023-03-08T16:58:55.464Z,77.10
2023-03-08T17:01:24.021Z,77.30
2023-03-08T17:03:51.613Z,77.40
2023-03-08T17:06:21.867Z,77.70
2023-03-08T17:08:49.352Z,78.60
2023-03-08T17:11:25.792Z,78.10
2023-03-08T17:13:56.632Z,78.40
2023-03-08T17:16:26.991Z,78.70
2023-03-08T17:18:54.470Z,79.00
2023-03-08T17:21:22.862Z,79.10
2023-03-08T17:23:51.013Z,79.40
2023-03-08T17:26:22.382Z,79.90
2023-03-08T17:28:51.459Z,79.90
2023-03-08T17:31:21.474Z,80.00
2023-03-08T17:33:48.905Z,80.20
2023-03-08T17:36:16.444Z,80.60
2023-03-08T17:38:43.457Z,80.30
2023-03-08T17:41:14.256Z,80.50
2023-03-08T17:43:41.802Z,80.70
2023-03-08T17:46:15.297Z,80.70
2023-03-08T17:48:42.989Z,80.80
2023-03-08T17:51:19.955Z,81.30
2023-03-08T17:53:46.965Z,81.20
2023-03-08T17:56:24.900Z,81.20
2023-03-08T17:58:52.410Z,81.40
2023-03-08T18:01:22.984Z,81.60
2023-03-08T18:03:50.199Z,81.60
2023-03-08T18:06:38.225Z,81.70
2023-03-08T18:09:15.025Z,82.40
2023-03-08T18:11:42.595Z,82.20
2023-03-08T18:14:14.074Z,82.00
2023-03-08T18:16:42.572Z,82.10
2023-03-08T18:19:10.728Z,82.90
2023-03-08T18:21:40.862Z,82.20
2023-03-08T18:24:11.357Z,82.30
2023-03-08T18:26:38.248Z,82.50
2023-03-08T18:29:05.163Z,82.50
2023-03-08T18:31:35.031Z,82.90
2023-03-08T18:34:02.807Z,83.50
2023-03-08T18:36:30.021Z,82.90
2023-03-08T18:38:57.121Z,82.90
2023-03-08T18:41:28.304Z,83.20
2023-03-08T18:43:56.498Z,83.50
2023-03-08T18:46:29.221Z,83.40
2023-03-08T18:49:02.907Z,83.40
2023-03-08T18:51:31.714Z,83.40
2023-03-08T18:53:59.427Z,83.50
2023-03-08T18:56:27.471Z,83.50
2023-03-08T18:58:57.004Z,83.50
2023-03-08T19:01:24.420Z,83.90
2023-03-08T19:03:51.530Z,83.70
2023-03-08T19:06:18.418Z,83.80
2023-03-08T19:08:45.376Z,84.20
2023-03-08T19:11:22.208Z,84.40
2023-03-08T19:13:49.775Z,84.60
2023-03-08T19:16:22.388Z,84.60
2023-03-08T19:18:54.752Z,84.80
2023-03-08T19:21:25.184Z,84.90
2023-03-08T19:23:52.399Z,84.90
2023-03-08T19:26:38.800Z,85.20
2023-03-08T19:29:20.126Z,85.30
2023-03-08T19:31:55.884Z,85.50
2023-03-08T19:34:30.587Z,85.50
2023-03-08T19:36:58.596Z,85.50
2023-03-08T19:39:31.977Z,85.60
2023-03-08T19:42:02.223Z,85.80
2023-03-08T19:44:30.309Z,85.90
2023-03-08T19:46:57.896Z,85.90
2023-03-08T19:49:31.388Z,86.00
2023-03-08T19:52:03.881Z,86.10
2023-03-08T19:54:31.393Z,86.10
2023-03-08T19:56:59.310Z,86.20
2023-03-08T19:59:26.859Z,86.40
2023-03-08T20:01:55.726Z,86.20
2023-03-08T20:04:23.526Z,86.40
2023-03-08T20:06:51.767Z,86.60
2023-03-08T20:09:21.725Z,86.40
2023-03-08T20:11:53.103Z,86.90
2023-03-08T20:14:22.990Z,87.00
2023-03-08T20:16:51.113Z,87.30
2023-03-08T20:19:18.399Z,87.80
2023-03-08T20:21:45.359Z,87.60
2023-03-08T20:24:13.392Z,87.70
2023-03-08T20:26:41.926Z,88.00
2023-03-08T20:29:09.037Z,88.30
2023-03-08T20:31:35.984Z,88.20
2023-03-08T20:34:03.561Z,88.00
2023-03-08T20:36:30.483Z,88.40
2023-03-08T20:38:58.558Z,88.50
2023-03-08T20:41:25.959Z,88.50
2023-03-08T20:44:02.140Z,88.90
2023-03-08T20:46:35.502Z,89.20
2023-03-08T20:49:03.452Z,89.60
2023-03-08T20:51:30.410Z,89.20
2023-03-08T20:53:57.608Z,89.30
2023-03-08T20:56:26.078Z,89.40
2023-03-08T20:58:54.742Z,89.40
2023-03-08T21:01:31.262Z,89.30
2023-03-08T21:03:58.383Z,89.70
2023-03-08T21:06:30.093Z,89.60
2023-03-08T21:08:58.359Z,89.70
2023-03-08T21:11:25.262Z,89.70
2023-03-08T21:13:53.496Z,89.60
2023-03-08T21:16:22.846Z,89.70
2023-03-08T21:18:59.477Z,89.90
2023-03-08T21:21:39.498Z,90.10
2023-03-08T21:24:11.448Z,90.10
2023-03-08T21:26:38.320Z,90.10
2023-03-08T21:29:09.287Z,90.20
2023-03-08T21:31:41.008Z,90.30
2023-03-08T21:34:09.006Z,90.20
2023-03-08T21:36:37.988Z,90.30
2023-03-08T21:39:06.660Z,90.30
2023-03-08T21:41:37.897Z,90.40
2023-03-08T21:44:09.881Z,90.50
2023-03-08T21:46:38.691Z,90.50
2023-03-08T21:49:06.866Z,90.50
2023-03-08T21:51:34.666Z,90.50
2023-03-08T21:54:01.763Z,90.60
2023-03-08T21:56:28.646Z,90.60
2023-03-08T21:58:56.423Z,90.50
2023-03-08T22:01:27.853Z,90.90
2023-03-08T22:03:56.078Z,90.70
2023-03-08T22:06:23.780Z,90.70
2023-03-08T22:08:51.017Z,90.70
2023-03-08T22:11:19.350Z,90.70
2023-03-08T22:13:59.614Z,90.80
2023-03-08T22:16:28.053Z,90.80
2023-03-08T22:19:01.376Z,90.80
2023-03-08T22:21:29.258Z,90.90
2023-03-08T22:23:59.342Z,90.80
2023-03-08T22:26:28.676Z,90.70
2023-03-08T22:28:56.356Z,90.70
2023-03-08T22:31:25.934Z,90.80
2023-03-08T22:33:52.862Z,90.80
2023-03-08T22:36:21.598Z,90.70
2023-03-08T22:38:48.525Z,90.70
2023-03-08T22:41:20.130Z,90.60
2023-03-08T22:43:47.746Z,90.70
2023-03-08T22:46:22.762Z,90.70
2023-03-08T22:48:51.266Z,90.60
2023-03-08T22:51:21.177Z,90.70
2023-03-08T22:53:48.121Z,90.70
2023-03-08T22:56:25.075Z,90.70
2023-03-08T22:58:52.385Z,90.80
2023-03-08T23:01:21.913Z,90.70
2023-03-08T23:03:50.572Z,90.70
2023-03-08T23:06:18.872Z,90.70
2023-03-08T23:08:47.142Z,90.70
2023-03-08T23:11:14.698Z,90.80
2023-03-08T23:13:41.862Z,90.70
2023-03-08T23:16:12.669Z,90.60
2023-03-08T23:18:39.814Z,90.70
2023-03-08T23:21:12.618Z,90.70
2023-03-08T23:23:39.785Z,90.80
2023-03-08T23:26:09.487Z,90.80
2023-03-08T23:28:36.730Z,90.80
2023-03-08T23:31:13.951Z,90.80
2023-03-08T23:33:41.972Z,90.80
2023-03-08T23:36:11.592Z,90.90
2023-03-08T23:38:38.542Z,90.90
2023-03-08T23:41:07.632Z,90.90
2023-03-08T23:43:35.927Z,90.90
2023-03-08T23:46:18.242Z,91.00
2023-03-08T23:48:47.049Z,91.00
2023-03-08T23:51:18.495Z,90.80
2023-03-08T23:53:48.224Z,90.80
2023-03-08T23:56:37.520Z,90.70
2023-03-08T23:59:17.836Z,90.70
